SPJR

Mayor General FAP Armando Revoredo Iglesias Airport

Cajamarca, Peru
SPJR 161700Z 1618/1718 20010KT 9999 SCT025 SCT050 TX22/1619Z TN08/1711Z FM171200 VRB03KT 9999 FEW025 BKN046
Issued Valid From Valid To
Jan-16 @ 17:00 UTC
(13 hours ago)
Jan-16 @ 18:00 UTC
(12 hours ago)
Jan-17 @ 18:00 UTC
(in 12 hours)
Jan-16 @ 18:00 to Jan-17 @ 12:00
SPJR 161700Z 1618/1718 20010KT 9999 SCT025 SCT050 TX22/1619Z TN08/1711Z
Wind Visibility Clouds
200° at 10 knots 10,000+ meters
  • Scattered at 2,500' AGL
  • Scattered at 5,000' AGL
From Jan-17 @ 12:00 to Jan-17 @ 18:00
FM171200 VRB03KT 9999 FEW025 BKN046
Wind Visibility Clouds
Variable at 3 knots 10,000+ meters
  • Few at 2,500' AGL
  • Broken at 4,600' AGL
SPJR 161700Z 1618/1718 20010KT 9999 SCT025 SCT050 TX22/1619Z TN08/1711Z FM171200 VRB03KT 9999 FEW025 BKN046
Issued Jan-16 @ 17:00 UTC
(13 hours ago)
Valid From Jan-16 @ 18:00 UTC
(12 hours ago)
Valid To Jan-17 @ 18:00 UTC
(in 12 hours)
Jan-16 @ 18:00 - Jan-17 @ 12:00
Wind Visibility
200° at 10 knots 10,000+ meters
Clouds
  • Scattered at 2,500' AGL
  • Scattered at 5,000' AGL
From Jan-17 @ 12:00 - Jan-17 @ 18:00
Wind Visibility
Variable at 3 knots 10,000+ meters
Clouds
  • Few at 2,500' AGL
  • Broken at 4,600' AGL